^^
Saratoga-Weather Station Historical Data
Daily Summary for October 9, 2020 Units:  Both    English   Metric
Daily Weekly Monthly Yearly Custom
  High: Low: Average:
Temperature: 59.5 °F /  15.3 °C 55.4 °F /  13 °C 57.2 °F /  14 °C
Dew Point: 56.7 °F /  13.7 °C 54 °F /  12.2 °C 55 °F /  12.8 °C
Humidity: 95% 84% 92%
Wind Speed: 9mph /  14.5km/h - 1.7mph /  2.8km/h
Wind Gust: 11mph /  17.7km/h - -
Wind- - West
Pressure: 30.1 in /  1018.6 hPa 30 in /  1017.3 hPa -
Precipitation: 0.37 in /  9.4 mm    
Historical Graphs
 
 
Tabular Data for October 9, 2020
Time Temperature Dew Point Pressure Wind Wind Speed Wind Gust Humidity Rainfall Rate (Hourly) solar
00:02 59.4 °F /  15.2 °C 54.9 °F /  12.7 °C 30.1in /  1018.3hPa WSW 2mph /  3.2km/h 8mph /  12.9km/h 85% 0in /  0.0mm 0 W/m2
00:07 59.4 °F /  15.2 °C 54.9 °F /  12.7 °C 30.1in /  1018.6hPa WSW 0.9mph /  1.4km/h 9mph /  14.5km/h 85% 0in /  0.0mm 0 W/m2
00:12 59.4 °F /  15.2 °C 54.9 °F /  12.7 °C 30.1in /  1018.3hPa WNW 2.9mph /  4.7km/h 5mph /  8km/h 85% 0in /  0.0mm 0 W/m2
00:17 59.5 °F /  15.3 °C 55 °F /  12.8 °C 30.1in /  1018.6hPa NW 4mph /  6.4km/h 9mph /  14.5km/h 85% 0in /  0.0mm 0 W/m2
00:22 59.5 °F /  15.3 °C 55 °F /  12.8 °C 30.1in /  1018.6hPa West 6mph /  9.7km/h 6mph /  9.7km/h 85% 0in /  0.0mm 0 W/m2
00:27 59.5 °F /  15.3 °C 55 °F /  12.8 °C 30.1in /  1018.6hPa North 0.9mph /  1.4km/h 7mph /  11.3km/h 85% 0in /  0.0mm 0 W/m2
00:32 59.5 °F /  15.3 °C 54.7 °F /  12.6 °C 30.1in /  1018.6hPa WSW 4.9mph /  7.9km/h 5mph /  8km/h 84% 0in /  0.0mm 0 W/m2
00:37 59.5 °F /  15.3 °C 55 °F /  12.8 °C 30.1in /  1018.6hPa Calm   1mph /  1.6km/h 85% 0in /  0.0mm 0 W/m2
00:42 59.5 °F /  15.3 °C 54.7 °F /  12.6 °C 30.1in /  1018.6hPa NW 2mph /  3.2km/h 3mph /  4.8km/h 84% 0in /  0.0mm 0 W/m2
00:47 59.5 °F /  15.3 °C 54.7 °F /  12.6 °C 30.1in /  1018.6hPa NW 2mph /  3.2km/h 3mph /  4.8km/h 84% 0in /  0.0mm 0 W/m2
00:52 59.5 °F /  15.3 °C 54.7 °F /  12.6 °C 30.1in /  1018.6hPa North 2.9mph /  4.7km/h 4mph /  6.4km/h 84% 0in /  0.0mm 0 W/m2
00:57 59.5 °F /  15.3 °C 54.7 °F /  12.6 °C 30.1in /  1018.6hPa NW 0.9mph /  1.4km/h 6mph /  9.7km/h 84% 0in /  0.0mm 0 W/m2
01:02 59.5 °F /  15.3 °C 54.7 °F /  12.6 °C 30.1in /  1018.6hPa Calm   4mph /  6.4km/h 84% 0in /  0.0mm 0 W/m2
01:07 59.5 °F /  15.3 °C 54.7 °F /  12.6 °C 30.1in /  1018.6hPa WNW 4mph /  6.4km/h 4mph /  6.4km/h 84% 0in /  0.0mm 0 W/m2
01:12 59.5 °F /  15.3 °C 55 °F /  12.8 °C 30.1in /  1018.3hPa NW 2.9mph /  4.7km/h 6mph /  9.7km/h 85% 0in /  0.0mm 0 W/m2
01:17 59.4 °F /  15.2 °C 54.9 °F /  12.7 °C 30.1in /  1018.3hPa NW 0.9mph /  1.4km/h 6mph /  9.7km/h 85% 0in /  0.0mm 0 W/m2
01:22 59.4 °F /  15.2 °C 54.9 °F /  12.7 °C 30.1in /  1018.6hPa Calm   2mph /  3.2km/h 85% 0in /  0.0mm 0 W/m2
01:27 59.4 °F /  15.2 °C 54.9 °F /  12.7 °C 30.1in /  1018.6hPa NW 0.9mph /  1.4km/h 3mph /  4.8km/h 85% 0in /  0.0mm 0 W/m2
01:32 59.2 °F /  15.1 °C 55 °F /  12.8 °C 30.1in /  1018.6hPa WSW 0.9mph /  1.4km/h 4mph /  6.4km/h 86% 0in /  0.0mm 0 W/m2
01:37 59 °F /  15 °C 54.9 °F /  12.7 °C 30.1in /  1018.3hPa NNE 2mph /  3.2km/h 3mph /  4.8km/h 86% 0in /  0.0mm 0 W/m2
01:42 58.8 °F /  14.9 °C 54.7 °F /  12.6 °C 30.1in /  1018.6hPa WSW 2mph /  3.2km/h 3mph /  4.8km/h 86% 0in /  0.0mm 0 W/m2
01:47 58.8 °F /  14.9 °C 54.7 °F /  12.6 °C 30.1in /  1018.6hPa SW 0.9mph /  1.4km/h 4mph /  6.4km/h 86% 0in /  0.0mm 0 W/m2
01:52 58.8 °F /  14.9 °C 55 °F /  12.8 °C 30.1in /  1018.6hPa NW 4mph /  6.4km/h 4mph /  6.4km/h 87% 0in /  0.0mm 0 W/m2
01:57 58.6 °F /  14.8 °C 54.9 °F /  12.7 °C 30.1in /  1018.6hPa NNW 2.9mph /  4.7km/h 7mph /  11.3km/h 87% 0in /  0.0mm 0 W/m2
02:02 58.6 °F /  14.8 °C 54.9 °F /  12.7 °C 30.1in /  1018.6hPa WNW 2.9mph /  4.7km/h 4mph /  6.4km/h 87% 0in /  0.0mm 0 W/m2
02:07 58.6 °F /  14.8 °C 55 °F /  12.8 °C 30.1in /  1018.6hPa NW 0.9mph /  1.4km/h 2mph /  3.2km/h 88% 0in /  0.0mm 0 W/m2
02:12 58.5 °F /  14.7 °C 54.9 °F /  12.7 °C 30.1in /  1018.6hPa NNW 2mph /  3.2km/h 3mph /  4.8km/h 88% 0in /  0.0mm 0 W/m2
02:17 58.3 °F /  14.6 °C 55 °F /  12.8 °C 30.1in /  1018.6hPa NNW 2mph /  3.2km/h 2mph /  3.2km/h 89% 0in /  0.0mm 0 W/m2
02:22 57.9 °F /  14.4 °C 55 °F /  12.8 °C 30.1in /  1018.3hPa NW 2mph /  3.2km/h 4mph /  6.4km/h 90% 0in /  0.0mm 0 W/m2
02:27 57.7 °F /  14.3 °C 54.9 °F /  12.7 °C 30.1in /  1018.6hPa NW 2mph /  3.2km/h 3mph /  4.8km/h 90% 0in /  0.0mm 0 W/m2
02:32 57.6 °F /  14.2 °C 55 °F /  12.8 °C 30.1in /  1018.6hPa NW 2mph /  3.2km/h 3mph /  4.8km/h 91% 0in /  0.0mm 0 W/m2
02:37 57.6 °F /  14.2 °C 55 °F /  12.8 °C 30.1in /  1018.3hPa WNW 2mph /  3.2km/h 4mph /  6.4km/h 91% 0in /  0.0mm 0 W/m2
02:42 57.6 °F /  14.2 °C 55 °F /  12.8 °C 30.1in /  1018.6hPa NW 0.9mph /  1.4km/h 4mph /  6.4km/h 91% 0.01in /  0.2mm 0 W/m2
02:47 57.6 °F /  14.2 °C 55 °F /  12.8 °C 30.1in /  1018.3hPa WNW 4mph /  6.4km/h 10mph /  16.1km/h 91% 0.01in /  0.2mm 0 W/m2
02:52 57.6 °F /  14.2 °C 55 °F /  12.8 °C 30.1in /  1018.3hPa SW 2mph /  3.2km/h 6mph /  9.7km/h 91% 0.01in /  0.2mm 0 W/m2
02:57 57.6 °F /  14.2 °C 55 °F /  12.8 °C 30.1in /  1018.3hPa WSW 0.9mph /  1.4km/h 8mph /  12.9km/h 91% 0.01in /  0.2mm 0 W/m2
03:02 57.4 °F /  14.1 °C 55 °F /  12.8 °C 30.1in /  1018.3hPa NNE 0.9mph /  1.4km/h 3mph /  4.8km/h 92% 0.01in /  0.2mm 0 W/m2
03:07 57.4 °F /  14.1 °C 55 °F /  12.8 °C 30.1in /  1018.3hPa North 0.9mph /  1.4km/h 3mph /  4.8km/h 92% 0.01in /  0.2mm 0 W/m2
03:12 57.4 °F /  14.1 °C 55 °F /  12.8 °C 30.1in /  1018.3hPa NNW 2mph /  3.2km/h 2mph /  3.2km/h 92% 0.01in /  0.2mm 0 W/m2
03:17 57.4 °F /  14.1 °C 55 °F /  12.8 °C 30.1in /  1018.3hPa NNW 0.9mph /  1.4km/h 1mph /  1.6km/h 92% 0.01in /  0.2mm 0 W/m2
03:22 57.4 °F /  14.1 °C 55 °F /  12.8 °C 30.1in /  1018.3hPa WNW 2.9mph /  4.7km/h 4mph /  6.4km/h 92% 0.01in /  0.2mm 0 W/m2
03:27 57.4 °F /  14.1 °C 54.9 °F /  12.7 °C 30.1in /  1018.3hPa NW 2.9mph /  4.7km/h 4mph /  6.4km/h 91% 0.01in /  0.2mm 0 W/m2
03:32 57.6 °F /  14.2 °C 55 °F /  12.8 °C 30.1in /  1018.3hPa NW 2mph /  3.2km/h 4mph /  6.4km/h 91% 0.01in /  0.2mm 0 W/m2
03:37 57.6 °F /  14.2 °C 55 °F /  12.8 °C 30.1in /  1018.3hPa NNW 0.9mph /  1.4km/h 3mph /  4.8km/h 91% 0.01in /  0.2mm 0 W/m2
03:42 57.6 °F /  14.2 °C 55 °F /  12.8 °C 30.1in /  1018.0hPa NW 2mph /  3.2km/h 5mph /  8km/h 91% 0in /  0.0mm 0 W/m2
03:47 57.6 °F /  14.2 °C 55 °F /  12.8 °C 30.1in /  1018.0hPa SE 4mph /  6.4km/h 4mph /  6.4km/h 91% 0in /  0.0mm 0 W/m2
03:52 57.6 °F /  14.2 °C 54.7 °F /  12.6 °C 30.1in /  1018.0hPa NW 0.9mph /  1.4km/h 5mph /  8km/h 90% 0in /  0.0mm 0 W/m2
03:57 57.7 °F /  14.3 °C 54.9 °F /  12.7 °C 30.1in /  1018.0hPa North 4mph /  6.4km/h 4mph /  6.4km/h 90% 0in /  0.0mm 0 W/m2
04:02 57.7 °F /  14.3 °C 54.9 °F /  12.7 °C 30.1in /  1018.0hPa SW 0.9mph /  1.4km/h 3mph /  4.8km/h 90% 0in /  0.0mm 0 W/m2
04:07 57.7 °F /  14.3 °C 54.9 °F /  12.7 °C 30.1in /  1018.0hPa NW 0.9mph /  1.4km/h 4mph /  6.4km/h 90% 0in /  0.0mm 0 W/m2
04:12 57.7 °F /  14.3 °C 54.9 °F /  12.7 °C 30.1in /  1018.0hPa NNW 2mph /  3.2km/h 5mph /  8km/h 90% 0in /  0.0mm 0 W/m2
04:17 57.7 °F /  14.3 °C 54.9 °F /  12.7 °C 30.1in /  1018.0hPa WNW 0.9mph /  1.4km/h 3mph /  4.8km/h 90% 0in /  0.0mm 0 W/m2
04:22 57.7 °F /  14.3 °C 54.9 °F /  12.7 °C 30.1in /  1018.0hPa NW 6.9mph /  11.1km/h 7mph /  11.3km/h 90% 0in /  0.0mm 0 W/m2
04:27 57.9 °F /  14.4 °C 55 °F /  12.8 °C 30.1in /  1018.0hPa North 0.9mph /  1.4km/h 8mph /  12.9km/h 90% 0in /  0.0mm 0 W/m2
04:32 57.9 °F /  14.4 °C 54.7 °F /  12.6 °C 30.1in /  1018.0hPa North 4.9mph /  7.9km/h 5mph /  8km/h 89% 0in /  0.0mm 0 W/m2
04:37 57.9 °F /  14.4 °C 54.7 °F /  12.6 °C 30.1in /  1018.0hPa Calm   8mph /  12.9km/h 89% 0in /  0.0mm 0 W/m2
04:42 57.9 °F /  14.4 °C 54.7 °F /  12.6 °C 30.1in /  1018.0hPa NW 0.9mph /  1.4km/h 6mph /  9.7km/h 89% 0in /  0.0mm 0 W/m2
04:47 57.9 °F /  14.4 °C 54.7 °F /  12.6 °C 30.1in /  1018.0hPa NW 2.9mph /  4.7km/h 4mph /  6.4km/h 89% 0in /  0.0mm 0 W/m2
04:52 57.9 °F /  14.4 °C 54.7 °F /  12.6 °C 30.1in /  1018.0hPa NW 4mph /  6.4km/h 6mph /  9.7km/h 89% 0in /  0.0mm 0 W/m2
04:57 57.9 °F /  14.4 °C 54.7 °F /  12.6 °C 30.1in /  1018.0hPa ENE 2.9mph /  4.7km/h 4mph /  6.4km/h 89% 0in /  0.0mm 0 W/m2
05:02 57.9 °F /  14.4 °C 54.7 °F /  12.6 °C 30.1in /  1018.0hPa West 2mph /  3.2km/h 4mph /  6.4km/h 89% 0in /  0.0mm 0 W/m2
05:07 57.9 °F /  14.4 °C 54.7 °F /  12.6 °C 30.1in /  1018.0hPa NW 2mph /  3.2km/h 3mph /  4.8km/h 89% 0in /  0.0mm 0 W/m2
05:12 57.9 °F /  14.4 °C 54.7 °F /  12.6 °C 30.1in /  1018.0hPa North 2.9mph /  4.7km/h 4mph /  6.4km/h 89% 0in /  0.0mm 0 W/m2
05:17 57.9 °F /  14.4 °C 54.7 °F /  12.6 °C 30.1in /  1018.0hPa North 0.9mph /  1.4km/h 2mph /  3.2km/h 89% 0in /  0.0mm 0 W/m2
05:22 57.9 °F /  14.4 °C 54.7 °F /  12.6 °C 30.1in /  1018.0hPa NW 0.9mph /  1.4km/h 3mph /  4.8km/h 89% 0in /  0.0mm 0 W/m2
05:27 57.9 °F /  14.4 °C 54.7 °F /  12.6 °C 30.1in /  1018.0hPa North 0.9mph /  1.4km/h 2mph /  3.2km/h 89% 0in /  0.0mm 0 W/m2
05:32 57.7 °F /  14.3 °C 54.5 °F /  12.5 °C 30.1in /  1018.0hPa SW 0.9mph /  1.4km/h 4mph /  6.4km/h 89% 0in /  0.0mm 0 W/m2
05:37 57.7 °F /  14.3 °C 54.5 °F /  12.5 °C 30.1in /  1018.0hPa NW 2mph /  3.2km/h 3mph /  4.8km/h 89% 0in /  0.0mm 0 W/m2
05:42 57.7 °F /  14.3 °C 54.5 °F /  12.5 °C 30.1in /  1018.0hPa WNW 2mph /  3.2km/h 3mph /  4.8km/h 89% 0in /  0.0mm 0 W/m2
05:47 57.7 °F /  14.3 °C 54.5 °F /  12.5 °C 30.1in /  1018.0hPa NW 2mph /  3.2km/h 5mph /  8km/h 89% 0in /  0.0mm 0 W/m2
05:52 57.7 °F /  14.3 °C 54.9 °F /  12.7 °C 30.1in /  1018.0hPa NW 2mph /  3.2km/h 4mph /  6.4km/h 90% 0in /  0.0mm 0 W/m2
05:57 57.6 °F /  14.2 °C 54.7 °F /  12.6 °C 30.1in /  1018.0hPa NNE 0.9mph /  1.4km/h 4mph /  6.4km/h 90% 0in /  0.0mm 0 W/m2
06:02 57.6 °F /  14.2 °C 54.7 °F /  12.6 °C 30.1in /  1018.0hPa NW 0.9mph /  1.4km/h 3mph /  4.8km/h 90% 0in /  0.0mm 0 W/m2
06:07 57.4 °F /  14.1 °C 54.5 °F /  12.5 °C 30.1in /  1018.0hPa North 0.9mph /  1.4km/h 2mph /  3.2km/h 90% 0in /  0.0mm 0 W/m2
06:12 57.4 °F /  14.1 °C 54.9 °F /  12.7 °C 30.1in /  1018.0hPa West 2.9mph /  4.7km/h 4mph /  6.4km/h 91% 0in /  0.0mm 0 W/m2
06:17 57 °F /  13.9 °C 54.5 °F /  12.5 °C 30.1in /  1018.0hPa Calm   2mph /  3.2km/h 91% 0in /  0.0mm 0 W/m2
06:22 56.8 °F /  13.8 °C 54.3 °F /  12.4 °C 30.1in /  1018.0hPa North 0.9mph /  1.4km/h 1mph /  1.6km/h 91% 0in /  0.0mm 0 W/m2
06:28 56.8 °F /  13.8 °C 54.5 °F /  12.5 °C 30.1in /  1018.0hPa NNW 2mph /  3.2km/h 5mph /  8km/h 92% 0in /  0.0mm 0 W/m2
06:33 56.7 °F /  13.7 °C 54.3 °F /  12.4 °C 30.1in /  1018.0hPa NNW 2mph /  3.2km/h 2mph /  3.2km/h 92% 0in /  0.0mm 0 W/m2
06:38 56.5 °F /  13.6 °C 54.5 °F /  12.5 °C 30.1in /  1018.0hPa NNW 0.9mph /  1.4km/h 5mph /  8km/h 93% 0.01in /  0.2mm 0 W/m2
06:43 56.5 °F /  13.6 °C 54.5 °F /  12.5 °C 30.1in /  1018.0hPa North 2mph /  3.2km/h 2mph /  3.2km/h 93% 0.01in /  0.2mm 0 W/m2
06:48 56.3 °F /  13.5 °C 54.3 °F /  12.4 °C 30.1in /  1018.0hPa NW 2.9mph /  4.7km/h 4mph /  6.4km/h 93% 0.02in /  0.5mm 0 W/m2
06:53 56.1 °F /  13.4 °C 54.1 °F /  12.3 °C 30.1in /  1018.0hPa NW 2mph /  3.2km/h 2mph /  3.2km/h 93% 0.02in /  0.5mm 0 W/m2
06:58 55.9 °F /  13.3 °C 54.3 °F /  12.4 °C 30.1in /  1018.0hPa NW 2mph /  3.2km/h 3mph /  4.8km/h 94% 0.02in /  0.5mm 0 W/m2
07:03 55.9 °F /  13.3 °C 54.3 °F /  12.4 °C 30.1in /  1018.0hPa Calm   1mph /  1.6km/h 94% 0.02in /  0.5mm 0 W/m2
07:08 55.9 °F /  13.3 °C 54.3 °F /  12.4 °C 30.1in /  1018.0hPa NW 2mph /  3.2km/h 4mph /  6.4km/h 94% 0.02in /  0.5mm 0 W/m2
07:13 55.8 °F /  13.2 °C 54.1 °F /  12.3 °C 30.1in /  1018.0hPa SSW 2mph /  3.2km/h 5mph /  8km/h 94% 0.02in /  0.5mm 0 W/m2
07:18 55.8 °F /  13.2 °C 54.1 °F /  12.3 °C 30.1in /  1017.6hPa NNW 2mph /  3.2km/h 3mph /  4.8km/h 94% 0.03in /  0.8mm 0 W/m2
07:23 55.8 °F /  13.2 °C 54.1 °F /  12.3 °C 30.1in /  1018.0hPa Calm   4mph /  6.4km/h 94% 0.03in /  0.8mm 0 W/m2
07:28 55.8 °F /  13.2 °C 54.1 °F /  12.3 °C 30.1in /  1017.6hPa Calm   2mph /  3.2km/h 94% 0.03in /  0.8mm 0 W/m2
07:33 55.8 °F /  13.2 °C 54.1 °F /  12.3 °C 30.1in /  1018.0hPa Calm   1mph /  1.6km/h 94% 0.03in /  0.8mm 0 W/m2
07:38 55.8 °F /  13.2 °C 54.1 °F /  12.3 °C 30.1in /  1017.6hPa Calm   2mph /  3.2km/h 94% 0.02in /  0.5mm 0 W/m2
07:43 55.6 °F /  13.1 °C 54 °F /  12.2 °C 30.1in /  1017.6hPa WNW 0.9mph /  1.4km/h 3mph /  4.8km/h 94% 0.02in /  0.5mm 0 W/m2
07:48 55.6 °F /  13.1 °C 54.1 °F /  12.3 °C 30.1in /  1017.6hPa NNW 0.9mph /  1.4km/h 1mph /  1.6km/h 95% 0.02in /  0.5mm 0 W/m2
07:53 55.6 °F /  13.1 °C 54.1 °F /  12.3 °C 30.1in /  1017.6hPa Calm   3mph /  4.8km/h 95% 0.02in /  0.5mm 0 W/m2
07:58 55.6 °F /  13.1 °C 54 °F /  12.2 °C 30.1in /  1018.0hPa North 2.9mph /  4.7km/h 3mph /  4.8km/h 94% 0.01in /  0.2mm 0 W/m2
08:03 55.6 °F /  13.1 °C 54 °F /  12.2 °C 30.1in /  1018.0hPa ENE 0.9mph /  1.4km/h 2mph /  3.2km/h 94% 0.02in /  0.5mm 0 W/m2
08:08 55.6 °F /  13.1 °C 54.1 °F /  12.3 °C 30.1in /  1017.6hPa NNW 2mph /  3.2km/h 3mph /  4.8km/h 95% 0.02in /  0.5mm 0 W/m2
08:13 55.6 °F /  13.1 °C 54.1 °F /  12.3 °C 30.1in /  1017.6hPa NW 2mph /  3.2km/h 3mph /  4.8km/h 95% 0.02in /  0.5mm 5 W/m2
08:18 55.6 °F /  13.1 °C 54.1 °F /  12.3 °C 30.1in /  1017.6hPa Calm     95% 0.01in /  0.2mm 9 W/m2
08:23 55.6 °F /  13.1 °C 54.1 °F /  12.3 °C 30.1in /  1017.6hPa NW 0.9mph /  1.4km/h 2mph /  3.2km/h 95% 0.01in /  0.2mm 12 W/m2
08:28 55.6 °F /  13.1 °C 54.1 °F /  12.3 °C 30.1in /  1017.6hPa Calm   1mph /  1.6km/h 95% 0.02in /  0.5mm 16 W/m2
08:33 55.6 °F /  13.1 °C 54.1 °F /  12.3 °C 30.1in /  1018.0hPa Calm   5mph /  8km/h 95% 0.02in /  0.5mm 16 W/m2
08:38 55.6 °F /  13.1 °C 54.1 °F /  12.3 °C 30.1in /  1018.0hPa Calm   1mph /  1.6km/h 95% 0.02in /  0.5mm 16 W/m2
08:43 55.6 °F /  13.1 °C 54.1 °F /  12.3 °C 30.1in /  1018.0hPa Calm   5mph /  8km/h 95% 0.02in /  0.5mm 16 W/m2
08:48 55.6 °F /  13.1 °C 54.1 °F /  12.3 °C 30.1in /  1018.0hPa North 0.9mph /  1.4km/h 1mph /  1.6km/h 95% 0.02in /  0.5mm 12 W/m2
08:53 55.6 °F /  13.1 °C 54.1 °F /  12.3 °C 30.1in /  1018.0hPa Calm   1mph /  1.6km/h 95% 0.02in /  0.5mm 12 W/m2
08:58 55.4 °F /  13 °C 54 °F /  12.2 °C 30.1in /  1018.0hPa NW 0.9mph /  1.4km/h 1mph /  1.6km/h 95% 0.02in /  0.5mm 16 W/m2
09:03 55.4 °F /  13 °C 54 °F /  12.2 °C 30.1in /  1018.0hPa ENE 0.9mph /  1.4km/h 2mph /  3.2km/h 95% 0.02in /  0.5mm 30 W/m2
09:08 55.4 °F /  13 °C 54 °F /  12.2 °C 30.1in /  1018.0hPa Calm   1mph /  1.6km/h 95% 0.02in /  0.5mm 26 W/m2
09:13 55.4 °F /  13 °C 54 °F /  12.2 °C 30.1in /  1018.0hPa NE 0.9mph /  1.4km/h 1mph /  1.6km/h 95% 0.02in /  0.5mm 33 W/m2
09:18 55.6 °F /  13.1 °C 54.1 °F /  12.3 °C 30.1in /  1018.0hPa NNW 2mph /  3.2km/h 3mph /  4.8km/h 95% 0.02in /  0.5mm 37 W/m2
09:23 55.6 °F /  13.1 °C 54.1 °F /  12.3 °C 30.1in /  1018.0hPa North 0.9mph /  1.4km/h 1mph /  1.6km/h 95% 0.02in /  0.5mm 44 W/m2
09:28 55.6 °F /  13.1 °C 54.1 °F /  12.3 °C 30.1in /  1018.0hPa Calm   4mph /  6.4km/h 95% 0.01in /  0.2mm 46 W/m2
09:33 55.6 °F /  13.1 °C 54.1 °F /  12.3 °C 30.1in /  1018.0hPa Calm   2mph /  3.2km/h 95% 0.02in /  0.5mm 51 W/m2
09:38 55.8 °F /  13.2 °C 54.3 °F /  12.4 °C 30.1in /  1018.0hPa Calm   4mph /  6.4km/h 95% 0.02in /  0.5mm 70 W/m2
09:43 55.8 °F /  13.2 °C 54.3 °F /  12.4 °C 30.1in /  1018.0hPa Calm   3mph /  4.8km/h 95% 0.02in /  0.5mm 77 W/m2
09:48 55.8 °F /  13.2 °C 54.3 °F /  12.4 °C 30.1in /  1018.0hPa NNW 2.9mph /  4.7km/h 4mph /  6.4km/h 95% 0.01in /  0.2mm 60 W/m2
09:53 55.9 °F /  13.3 °C 54.5 °F /  12.5 °C 30.1in /  1018.0hPa NW 4mph /  6.4km/h 5mph /  8km/h 95% 0.01in /  0.2mm 30 W/m2
09:58 55.9 °F /  13.3 °C 54.5 °F /  12.5 °C 30.1in /  1018.3hPa NNW 0.9mph /  1.4km/h 3mph /  4.8km/h 95% 0.01in /  0.2mm 25 W/m2
10:03 55.9 °F /  13.3 °C 54.5 °F /  12.5 °C 30.1in /  1018.0hPa Calm   5mph /  8km/h 95% 0.01in /  0.2mm 35 W/m2
10:08 55.9 °F /  13.3 °C 54.3 °F /  12.4 °C 30.1in /  1018.3hPa NW 0.9mph /  1.4km/h 3mph /  4.8km/h 94% 0.01in /  0.2mm 32 W/m2
10:13 55.9 °F /  13.3 °C 54.3 °F /  12.4 °C 30.1in /  1018.0hPa Calm   1mph /  1.6km/h 94% 0.01in /  0.2mm 37 W/m2
10:18 55.9 °F /  13.3 °C 54.3 °F /  12.4 °C 30.1in /  1018.3hPa Calm   3mph /  4.8km/h 94% 0.01in /  0.2mm 40 W/m2
10:23 55.9 °F /  13.3 °C 54.3 °F /  12.4 °C 30.1in /  1018.3hPa NNE 0.9mph /  1.4km/h 1mph /  1.6km/h 94% 0.01in /  0.2mm 37 W/m2
10:28 55.9 °F /  13.3 °C 54.3 °F /  12.4 °C 30.1in /  1018.0hPa Calm     94% 0.01in /  0.2mm 37 W/m2
10:34 56.1 °F /  13.4 °C 54.5 °F /  12.5 °C 30.1in /  1018.0hPa NE 2mph /  3.2km/h 2mph /  3.2km/h 94% 0in /  0.0mm 63 W/m2
10:39 56.1 °F /  13.4 °C 54.5 °F /  12.5 °C 30.1in /  1018.3hPa Calm   2mph /  3.2km/h 94% 0in /  0.0mm 35 W/m2
10:44 56.1 °F /  13.4 °C 54.5 °F /  12.5 °C 30.1in /  1018.3hPa North 2mph /  3.2km/h 2mph /  3.2km/h 94% 0in /  0.0mm 39 W/m2
10:49 56.1 °F /  13.4 °C 54.5 °F /  12.5 °C 30.1in /  1018.0hPa Calm   1mph /  1.6km/h 94% 0in /  0.0mm 37 W/m2
10:54 56.1 °F /  13.4 °C 54.5 °F /  12.5 °C 30.1in /  1018.0hPa NE 2mph /  3.2km/h 2mph /  3.2km/h 94% 0in /  0.0mm 58 W/m2
10:59 56.1 °F /  13.4 °C 54.5 °F /  12.5 °C 30.1in /  1018.0hPa Calm   1mph /  1.6km/h 94% 0in /  0.0mm 51 W/m2
11:04 56.1 °F /  13.4 °C 54.5 °F /  12.5 °C 30.1in /  1018.0hPa Calm     94% 0.01in /  0.2mm 53 W/m2
11:09 56.1 °F /  13.4 °C 54.5 °F /  12.5 °C 30.1in /  1018.0hPa WSW 0.9mph /  1.4km/h 1mph /  1.6km/h 94% 0.02in /  0.5mm 44 W/m2
11:14 56.1 °F /  13.4 °C 54.5 °F /  12.5 °C 30.1in /  1018.0hPa East 0.9mph /  1.4km/h 4mph /  6.4km/h 94% 0.02in /  0.5mm 67 W/m2
11:19 56.1 °F /  13.4 °C 54.5 °F /  12.5 °C 30.1in /  1018.0hPa Calm   2mph /  3.2km/h 94% 0.02in /  0.5mm 100 W/m2
11:24 56.1 °F /  13.4 °C 54.5 °F /  12.5 °C 30.1in /  1018.0hPa WNW 0.9mph /  1.4km/h 2mph /  3.2km/h 94% 0.02in /  0.5mm 109 W/m2
11:29 56.3 °F /  13.5 °C 54.7 °F /  12.6 °C 30.1in /  1018.0hPa SE 2mph /  3.2km/h 2mph /  3.2km/h 94% 0.02in /  0.5mm 95 W/m2
11:34 56.3 °F /  13.5 °C 54.7 °F /  12.6 °C 30.1in /  1018.0hPa North 0.9mph /  1.4km/h 3mph /  4.8km/h 94% 0.02in /  0.5mm 62 W/m2
11:39 56.5 °F /  13.6 °C 54.9 °F /  12.7 °C 30.1in /  1018.3hPa West 0.9mph /  1.4km/h 6mph /  9.7km/h 94% 0.02in /  0.5mm 72 W/m2
11:44 56.5 °F /  13.6 °C 54.9 °F /  12.7 °C 30.1in /  1018.0hPa East 2mph /  3.2km/h 3mph /  4.8km/h 94% 0.03in /  0.8mm 105 W/m2
11:49 56.5 °F /  13.6 °C 54.9 °F /  12.7 °C 30.1in /  1018.0hPa NW 4mph /  6.4km/h 7mph /  11.3km/h 94% 0.04in /  1.0mm 109 W/m2
11:54 56.5 °F /  13.6 °C 54.9 °F /  12.7 °C 30.1in /  1018.3hPa West 0.9mph /  1.4km/h 2mph /  3.2km/h 94% 0.05in /  1.3mm 105 W/m2
11:59 56.5 °F /  13.6 °C 54.9 °F /  12.7 °C 30.1in /  1018.3hPa NW 4mph /  6.4km/h 7mph /  11.3km/h 94% 0.06in /  1.5mm 81 W/m2
12:04 56.5 °F /  13.6 °C 54.9 °F /  12.7 °C 30.1in /  1018.3hPa ESE 0.9mph /  1.4km/h 4mph /  6.4km/h 94% 0.05in /  1.3mm 146 W/m2
12:09 56.7 °F /  13.7 °C 55 °F /  12.8 °C 30.1in /  1018.3hPa WNW 2mph /  3.2km/h 6mph /  9.7km/h 94% 0.04in /  1.0mm 148 W/m2
12:14 56.7 °F /  13.7 °C 55 °F /  12.8 °C 30.1in /  1018.3hPa Calm   2mph /  3.2km/h 94% 0.05in /  1.3mm 162 W/m2
12:19 56.7 °F /  13.7 °C 55 °F /  12.8 °C 30.1in /  1018.0hPa NNW 0.9mph /  1.4km/h 3mph /  4.8km/h 94% 0.05in /  1.3mm 162 W/m2
12:24 56.8 °F /  13.8 °C 55.2 °F /  12.9 °C 30.1in /  1018.0hPa NNW 4mph /  6.4km/h 5mph /  8km/h 94% 0.05in /  1.3mm 199 W/m2
12:29 57 °F /  13.9 °C 55.6 °F /  13.1 °C 30.1in /  1018.0hPa North 0.9mph /  1.4km/h 2mph /  3.2km/h 95% 0.05in /  1.3mm 162 W/m2
12:34 57 °F /  13.9 °C 55.2 °F /  12.9 °C 30.1in /  1018.0hPa West 0.9mph /  1.4km/h 2mph /  3.2km/h 94% 0.05in /  1.3mm 130 W/m2
12:39 57 °F /  13.9 °C 55.2 °F /  12.9 °C 30.1in /  1018.3hPa North 0.9mph /  1.4km/h 2mph /  3.2km/h 94% 0.06in /  1.5mm 105 W/m2
12:44 57 °F /  13.9 °C 55.2 °F /  12.9 °C 30.1in /  1018.3hPa NW 4mph /  6.4km/h 6mph /  9.7km/h 94% 0.05in /  1.3mm 125 W/m2
12:49 57 °F /  13.9 °C 55.2 °F /  12.9 °C 30.1in /  1018.3hPa NNW 2mph /  3.2km/h 3mph /  4.8km/h 94% 0.04in /  1.0mm 142 W/m2
12:54 57 °F /  13.9 °C 55.2 °F /  12.9 °C 30.1in /  1018.3hPa WSW 0.9mph /  1.4km/h 5mph /  8km/h 94% 0.02in /  0.5mm 118 W/m2
12:59 57 °F /  13.9 °C 55.2 °F /  12.9 °C 30.1in /  1018.3hPa NW 2mph /  3.2km/h 4mph /  6.4km/h 94% 0.02in /  0.5mm 86 W/m2
13:04 57 °F /  13.9 °C 55.2 °F /  12.9 °C 30.1in /  1018.0hPa WSW 4mph /  6.4km/h 5mph /  8km/h 94% 0.03in /  0.8mm 91 W/m2
13:09 57 °F /  13.9 °C 55.2 °F /  12.9 °C 30.1in /  1018.0hPa NNE 0.9mph /  1.4km/h 3mph /  4.8km/h 94% 0.04in /  1.0mm 83 W/m2
13:14 57 °F /  13.9 °C 55.2 °F /  12.9 °C 30.1in /  1018.0hPa West 2.9mph /  4.7km/h 8mph /  12.9km/h 94% 0.04in /  1.0mm 84 W/m2
13:19 57 °F /  13.9 °C 55.2 °F /  12.9 °C 30.1in /  1018.0hPa WNW 2mph /  3.2km/h 3mph /  4.8km/h 94% 0.04in /  1.0mm 62 W/m2
13:24 57 °F /  13.9 °C 55.2 °F /  12.9 °C 30.1in /  1018.0hPa Calm   8mph /  12.9km/h 94% 0.06in /  1.5mm 54 W/m2
13:29 57 °F /  13.9 °C 55.2 °F /  12.9 °C 30.1in /  1018.0hPa West 0.9mph /  1.4km/h 3mph /  4.8km/h 94% 0.08in /  2.0mm 47 W/m2
13:34 57 °F /  13.9 °C 55.2 °F /  12.9 °C 30.1in /  1018.0hPa NNW 2.9mph /  4.7km/h 4mph /  6.4km/h 94% 0.09in /  2.3mm 81 W/m2
13:39 57 °F /  13.9 °C 55.2 °F /  12.9 °C 30.1in /  1018.0hPa WNW 0.9mph /  1.4km/h 3mph /  4.8km/h 94% 0.11in /  2.8mm 113 W/m2
13:44 57 °F /  13.9 °C 55.2 °F /  12.9 °C 30.1in /  1018.0hPa Calm   4mph /  6.4km/h 94% 0.12in /  3.0mm 176 W/m2
13:49 57.4 °F /  14.1 °C 55.6 °F /  13.1 °C 30.1in /  1018.0hPa NW 2mph /  3.2km/h 4mph /  6.4km/h 94% 0.13in /  3.3mm 230 W/m2
13:54 57.7 °F /  14.3 °C 56.3 °F /  13.5 °C 30.1in /  1018.0hPa WNW 0.9mph /  1.4km/h 2mph /  3.2km/h 95% 0.13in /  3.3mm 301 W/m2
13:59 57.9 °F /  14.4 °C 56.1 °F /  13.4 °C 30.1in /  1018.0hPa West 2.9mph /  4.7km/h 4mph /  6.4km/h 94% 0.13in /  3.3mm 214 W/m2
14:04 57.9 °F /  14.4 °C 56.1 °F /  13.4 °C 30.1in /  1018.0hPa SW 2.9mph /  4.7km/h 5mph /  8km/h 94% 0.12in /  3.0mm 153 W/m2
14:09 57.9 °F /  14.4 °C 56.1 °F /  13.4 °C 30.1in /  1018.0hPa NW 2.9mph /  4.7km/h 11mph /  17.7km/h 94% 0.11in /  2.8mm 114 W/m2
14:14 57.9 °F /  14.4 °C 55.9 °F /  13.3 °C 30.1in /  1018.0hPa WNW 2mph /  3.2km/h 4mph /  6.4km/h 93% 0.1in /  2.5mm 127 W/m2
14:19 58.1 °F /  14.5 °C 56.1 °F /  13.4 °C 30.1in /  1018.0hPa West 6mph /  9.7km/h 11mph /  17.7km/h 93% 0.09in /  2.3mm 88 W/m2
14:24 58.1 °F /  14.5 °C 56.1 °F /  13.4 °C 30.1in /  1018.0hPa WNW 6.9mph /  11.1km/h 8mph /  12.9km/h 93% 0.07in /  1.8mm 86 W/m2
14:29 57.9 °F /  14.4 °C 55.9 °F /  13.3 °C 30.1in /  1018.0hPa WNW 2mph /  3.2km/h 7mph /  11.3km/h 93% 0.06in /  1.5mm 88 W/m2
14:34 57.9 °F /  14.4 °C 55.9 °F /  13.3 °C 30.1in /  1018.0hPa WNW 2.9mph /  4.7km/h 8mph /  12.9km/h 93% 0.04in /  1.0mm 91 W/m2
14:39 57.9 °F /  14.4 °C 55.9 °F /  13.3 °C 30.1in /  1018.0hPa NW 2.9mph /  4.7km/h 4mph /  6.4km/h 93% 0.02in /  0.5mm 123 W/m2
14:44 58.1 °F /  14.5 °C 56.1 °F /  13.4 °C 30.1in /  1017.6hPa WNW 2mph /  3.2km/h 5mph /  8km/h 93% 0.01in /  0.2mm 192 W/m2
14:49 58.3 °F /  14.6 °C 56.5 °F /  13.6 °C 30.1in /  1017.6hPa SW 4.9mph /  7.9km/h 5mph /  8km/h 94% 0in /  0.0mm 202 W/m2
14:54 58.3 °F /  14.6 °C 56.3 °F /  13.5 °C 30.1in /  1017.6hPa NW 0.9mph /  1.4km/h 3mph /  4.8km/h 93% 0in /  0.0mm 200 W/m2
14:59 58.5 °F /  14.7 °C 56.5 °F /  13.6 °C 30.1in /  1017.6hPa Calm   4mph /  6.4km/h 93% 0in /  0.0mm 132 W/m2
15:04 58.6 °F /  14.8 °C 56.7 °F /  13.7 °C 30.1in /  1017.6hPa West 2.9mph /  4.7km/h 3mph /  4.8km/h 93% 0in /  0.0mm 118 W/m2
15:09 58.6 °F /  14.8 °C 56.7 °F /  13.7 °C 30.1in /  1017.6hPa WNW 2.9mph /  4.7km/h 4mph /  6.4km/h 93% 0in /  0.0mm 137 W/m2
15:14 58.6 °F /  14.8 °C 56.7 °F /  13.7 °C 30.1in /  1017.6hPa Calm   1mph /  1.6km/h 93% 0in /  0.0mm 51 W/m2
15:19 58.6 °F /  14.8 °C 56.7 °F /  13.7 °C 30.1in /  1017.6hPa East 0.9mph /  1.4km/h 2mph /  3.2km/h 93% 0in /  0.0mm 47 W/m2
15:24 58.5 °F /  14.7 °C 56.5 °F /  13.6 °C 30.1in /  1017.6hPa NW 2mph /  3.2km/h 4mph /  6.4km/h 93% 0in /  0.0mm 40 W/m2
15:29 58.5 °F /  14.7 °C 56.5 °F /  13.6 °C 30.1in /  1017.6hPa NNW 2.9mph /  4.7km/h 3mph /  4.8km/h 93% 0in /  0.0mm 62 W/m2
15:34 58.5 °F /  14.7 °C 56.5 °F /  13.6 °C 30in /  1017.3hPa SW 0.9mph /  1.4km/h 2mph /  3.2km/h 93% 0in /  0.0mm 60 W/m2
15:40 58.5 °F /  14.7 °C 56.5 °F /  13.6 °C 30in /  1017.3hPa WSW 0.9mph /  1.4km/h 6mph /  9.7km/h 93% 0in /  0.0mm 84 W/m2
15:45 58.5 °F /  14.7 °C 56.5 °F /  13.6 °C 30.1in /  1017.6hPa WNW 2.9mph /  4.7km/h 3mph /  4.8km/h 93% 0in /  0.0mm 88 W/m2
15:50 58.3 °F /  14.6 °C 56.3 °F /  13.5 °C 30.1in /  1017.6hPa WNW 2.9mph /  4.7km/h 6mph /  9.7km/h 93% 0.01in /  0.2mm 46 W/m2
15:55 58.5 °F /  14.7 °C 56.5 °F /  13.6 °C 30.1in /  1017.6hPa WNW 2mph /  3.2km/h 4mph /  6.4km/h 93% 0.01in /  0.2mm 32 W/m2
16:00 58.3 °F /  14.6 °C 56.3 °F /  13.5 °C 30in /  1017.3hPa NW 2mph /  3.2km/h 6mph /  9.7km/h 93% 0.01in /  0.2mm 47 W/m2
16:05 58.5 °F /  14.7 °C 56.5 °F /  13.6 °C 30in /  1017.3hPa SW 0.9mph /  1.4km/h 3mph /  4.8km/h 93% 0.01in /  0.2mm 54 W/m2
16:10 58.5 °F /  14.7 °C 56.7 °F /  13.7 °C 30in /  1017.3hPa West 2mph /  3.2km/h 5mph /  8km/h 94% 0.01in /  0.2mm 70 W/m2
16:15 58.5 °F /  14.7 °C 56.7 °F /  13.7 °C 30in /  1017.3hPa NW 0.9mph /  1.4km/h 4mph /  6.4km/h 94% 0.02in /  0.5mm 47 W/m2
16:20 58.5 °F /  14.7 °C 56.7 °F /  13.7 °C 30in /  1017.3hPa WNW 2mph /  3.2km/h 4mph /  6.4km/h 94% 0.02in /  0.5mm 46 W/m2
16:25 58.3 °F /  14.6 °C 56.5 °F /  13.6 °C 30in /  1017.3hPa NW 2mph /  3.2km/h 4mph /  6.4km/h 94% 0.02in /  0.5mm 40 W/m2
16:30 58.3 °F /  14.6 °C 56.5 °F /  13.6 °C 30in /  1017.3hPa NW 2mph /  3.2km/h 6mph /  9.7km/h 94% 0.02in /  0.5mm 44 W/m2
16:35 58.3 °F /  14.6 °C 56.5 °F /  13.6 °C 30in /  1017.3hPa WNW 2mph /  3.2km/h 6mph /  9.7km/h 94% 0.02in /  0.5mm 46 W/m2
16:40 58.3 °F /  14.6 °C 56.5 °F /  13.6 °C 30in /  1017.3hPa WSW 4mph /  6.4km/h 6mph /  9.7km/h 94% 0.02in /  0.5mm 88 W/m2
16:45 58.3 °F /  14.6 °C 56.5 °F /  13.6 °C 30in /  1017.3hPa NW 2.9mph /  4.7km/h 6mph /  9.7km/h 94% 0.02in /  0.5mm 86 W/m2
16:50 58.3 °F /  14.6 °C 56.5 °F /  13.6 °C 30in /  1017.3hPa WNW 0.9mph /  1.4km/h 3mph /  4.8km/h 94% 0.01in /  0.2mm 67 W/m2
16:55 58.5 °F /  14.7 °C 56.7 °F /  13.7 °C 30in /  1017.3hPa WNW 0.9mph /  1.4km/h 3mph /  4.8km/h 94% 0.01in /  0.2mm 58 W/m2
17:00 58.3 °F /  14.6 °C 56.5 °F /  13.6 °C 30.1in /  1017.6hPa NW 2mph /  3.2km/h 3mph /  4.8km/h 94% 0.02in /  0.5mm 32 W/m2
17:05 58.3 °F /  14.6 °C 56.5 °F /  13.6 °C 30.1in /  1017.6hPa WNW 2.9mph /  4.7km/h 3mph /  4.8km/h 94% 0.04in /  1.0mm 21 W/m2
17:10 58.1 °F /  14.5 °C 56.3 °F /  13.5 °C 30.1in /  1017.6hPa West 4mph /  6.4km/h 4mph /  6.4km/h 94% 0.06in /  1.5mm 30 W/m2
17:15 57.7 °F /  14.3 °C 55.9 °F /  13.3 °C 30.1in /  1017.6hPa WNW 8.9mph /  14.3km/h 9mph /  14.5km/h 94% 0.06in /  1.5mm 51 W/m2
17:20 57.6 °F /  14.2 °C 55.8 °F /  13.2 °C 30.1in /  1017.6hPa West 2.9mph /  4.7km/h 6mph /  9.7km/h 94% 0.07in /  1.8mm 58 W/m2
17:25 57.4 °F /  14.1 °C 55.6 °F /  13.1 °C 30in /  1017.3hPa WNW 9mph /  14.5km/h 9mph /  14.5km/h 94% 0.07in /  1.8mm 58 W/m2
17:30 57.2 °F /  14 °C 55.4 °F /  13 °C 30.1in /  1017.6hPa WNW 2mph /  3.2km/h 4mph /  6.4km/h 94% 0.07in /  1.8mm 46 W/m2
17:35 57.2 °F /  14 °C 55.8 °F /  13.2 °C 30.1in /  1017.6hPa West 0.9mph /  1.4km/h 4mph /  6.4km/h 95% 0.07in /  1.8mm 44 W/m2
17:40 57 °F /  13.9 °C 55.6 °F /  13.1 °C 30in /  1017.3hPa West 2mph /  3.2km/h 2mph /  3.2km/h 95% 0.07in /  1.8mm 51 W/m2
17:45 57 °F /  13.9 °C 55.6 °F /  13.1 °C 30.1in /  1017.6hPa West 2mph /  3.2km/h 4mph /  6.4km/h 95% 0.07in /  1.8mm 47 W/m2
17:50 57 °F /  13.9 °C 55.6 °F /  13.1 °C 30.1in /  1017.6hPa West 2.9mph /  4.7km/h 4mph /  6.4km/h 95% 0.07in /  1.8mm 56 W/m2
17:55 57 °F /  13.9 °C 55.6 °F /  13.1 °C 30.1in /  1017.6hPa WNW 0.9mph /  1.4km/h 2mph /  3.2km/h 95% 0.07in /  1.8mm 28 W/m2
18:00 57 °F /  13.9 °C 55.6 °F /  13.1 °C 30.1in /  1017.6hPa WSW 0.9mph /  1.4km/h 2mph /  3.2km/h 95% 0.06in /  1.5mm 32 W/m2
18:05 57 °F /  13.9 °C 55.6 °F /  13.1 °C 30.1in /  1017.6hPa WNW 2mph /  3.2km/h 3mph /  4.8km/h 95% 0.04in /  1.0mm 21 W/m2
18:10 57 °F /  13.9 °C 55.6 °F /  13.1 °C 30in /  1017.3hPa Calm   2mph /  3.2km/h 95% 0.02in /  0.5mm 26 W/m2
18:15 57 °F /  13.9 °C 55.6 °F /  13.1 °C 30.1in /  1017.6hPa WNW 2mph /  3.2km/h 4mph /  6.4km/h 95% 0.01in /  0.2mm 28 W/m2
18:20 57 °F /  13.9 °C 55.6 °F /  13.1 °C 30.1in /  1017.6hPa West 0.9mph /  1.4km/h 2mph /  3.2km/h 95% 0.01in /  0.2mm 23 W/m2
18:25 57 °F /  13.9 °C 55.6 °F /  13.1 °C 30.1in /  1017.6hPa West 4mph /  6.4km/h 4mph /  6.4km/h 95% 0.01in /  0.2mm 21 W/m2
18:30 57 °F /  13.9 °C 55.6 °F /  13.1 °C 30.1in /  1017.6hPa Calm   2mph /  3.2km/h 95% 0.01in /  0.2mm 14 W/m2
18:35 56.8 °F /  13.8 °C 55.4 °F /  13 °C 30.1in /  1017.6hPa West 2mph /  3.2km/h 3mph /  4.8km/h 95% 0.01in /  0.2mm 12 W/m2
18:40 56.8 °F /  13.8 °C 55.4 °F /  13 °C 30.1in /  1017.6hPa West 2mph /  3.2km/h 4mph /  6.4km/h 95% 0.01in /  0.2mm 9 W/m2
18:45 56.8 °F /  13.8 °C 55.4 °F /  13 °C 30.1in /  1017.6hPa Calm   3mph /  4.8km/h 95% 0.01in /  0.2mm 5 W/m2
18:50 56.8 °F /  13.8 °C 55.4 °F /  13 °C 30.1in /  1017.6hPa WSW 0.9mph /  1.4km/h 4mph /  6.4km/h 95% 0.01in /  0.2mm 0 W/m2
18:55 56.8 °F /  13.8 °C 55.4 °F /  13 °C 30.1in /  1017.6hPa WNW 2mph /  3.2km/h 3mph /  4.8km/h 95% 0.01in /  0.2mm 0 W/m2
19:00 56.8 °F /  13.8 °C 55.4 °F /  13 °C 30.1in /  1017.6hPa Calm   4mph /  6.4km/h 95% 0.01in /  0.2mm 0 W/m2
19:05 56.8 °F /  13.8 °C 55.4 °F /  13 °C 30.1in /  1017.6hPa West 0.9mph /  1.4km/h 4mph /  6.4km/h 95% 0.01in /  0.2mm 0 W/m2
19:10 56.7 °F /  13.7 °C 55.2 °F /  12.9 °C 30.1in /  1017.6hPa WNW 0.9mph /  1.4km/h 3mph /  4.8km/h 95% 0.01in /  0.2mm 0 W/m2
19:15 56.7 °F /  13.7 °C 55 °F /  12.8 °C 30.1in /  1017.6hPa Calm   4mph /  6.4km/h 94% 0.01in /  0.2mm 0 W/m2
19:20 56.7 °F /  13.7 °C 55 °F /  12.8 °C 30.1in /  1017.6hPa WNW 2mph /  3.2km/h 3mph /  4.8km/h 94% 0in /  0.0mm 0 W/m2
19:25 56.7 °F /  13.7 °C 55 °F /  12.8 °C 30.1in /  1018.0hPa WNW 2.9mph /  4.7km/h 4mph /  6.4km/h 94% 0in /  0.0mm 0 W/m2
19:30 56.7 °F /  13.7 °C 55 °F /  12.8 °C 30.1in /  1017.6hPa Calm   7mph /  11.3km/h 94% 0in /  0.0mm 0 W/m2
19:35 56.5 °F /  13.6 °C 54.9 °F /  12.7 °C 30.1in /  1018.0hPa West 4mph /  6.4km/h 5mph /  8km/h 94% 0in /  0.0mm 0 W/m2
19:40 56.5 °F /  13.6 °C 54.9 °F /  12.7 °C 30.1in /  1018.0hPa West 2mph /  3.2km/h 4mph /  6.4km/h 94% 0in /  0.0mm 0 W/m2
19:45 56.3 °F /  13.5 °C 54.7 °F /  12.6 °C 30.1in /  1018.0hPa WSW 0.9mph /  1.4km/h 4mph /  6.4km/h 94% 0in /  0.0mm 0 W/m2
19:50 56.1 °F /  13.4 °C 54.5 °F /  12.5 °C 30.1in /  1018.0hPa West 2.9mph /  4.7km/h 8mph /  12.9km/h 94% 0in /  0.0mm 0 W/m2
Juneau County Weather
Compliments of Weather Underground - 4 mb